createdAt,value
2019-01-22T00:01:04.539Z,21.30
2019-01-22T00:06:10.951Z,21.30
2019-01-22T00:11:17.769Z,21.30
2019-01-22T00:16:24.781Z,21.30
2019-01-22T00:21:31.102Z,21.30
2019-01-22T00:26:37.471Z,21.20
2019-01-22T00:31:44.202Z,21.30
2019-01-22T00:36:51.130Z,21.30
2019-01-22T00:41:57.050Z,21.30
2019-01-22T00:47:03.212Z,21.30
2019-01-22T00:52:10.200Z,21.30
2019-01-22T00:57:16.259Z,21.30
2019-01-22T01:02:23.422Z,21.30
2019-01-22T01:07:29.830Z,21.30
2019-01-22T01:12:36.470Z,21.30
2019-01-22T01:17:43.201Z,21.30
2019-01-22T01:22:49.759Z,21.30
2019-01-22T01:27:55.942Z,21.30
2019-01-22T01:33:02.019Z,21.30
2019-01-22T01:38:08.439Z,21.30
2019-01-22T01:43:15.110Z,21.30
2019-01-22T01:48:21.372Z,21.30
2019-01-22T01:53:27.350Z,21.30
2019-01-22T01:58:34.170Z,21.30
2019-01-22T02:03:40.582Z,21.30
2019-01-22T02:08:46.885Z,21.30
2019-01-22T02:13:59.350Z,21.30
2019-01-22T02:19:27.520Z,21.30
2019-01-22T02:24:48.702Z,21.30
2019-01-22T02:30:43.950Z,21.30
2019-01-22T02:36:12.222Z,21.30
2019-01-22T02:41:25.950Z,21.30
2019-01-22T02:46:44.330Z,21.30
2019-01-22T02:52:30.150Z,21.30
2019-01-22T02:58:25.830Z,21.30
2019-01-22T03:04:09.309Z,21.30
2019-01-22T03:09:57.019Z,21.20
2019-01-22T03:15:38.383Z,21.30
2019-01-22T03:21:21.880Z,21.20
2019-01-22T03:27:03.191Z,21.20
2019-01-22T03:32:23.410Z,21.20
2019-01-22T03:37:55.843Z,21.20
2019-01-22T03:43:25.010Z,21.20
2019-01-22T03:49:00.941Z,21.20
2019-01-22T03:55:11.839Z,21.20
2019-01-22T04:00:41.619Z,21.30
2019-01-22T04:05:50.599Z,21.20
2019-01-22T04:11:07.770Z,21.20
2019-01-22T04:16:14.881Z,21.20
2019-01-22T04:21:22.761Z,21.20
2019-01-22T04:26:54.701Z,21.20
2019-01-22T04:32:12.160Z,21.20
2019-01-22T04:37:32.122Z,21.20
2019-01-22T04:42:51.930Z,21.20
2019-01-22T04:48:11.681Z,21.20
2019-01-22T04:54:00.274Z,21.20
2019-01-22T04:59:44.709Z,21.20
2019-01-22T05:05:01.610Z,21.10
2019-01-22T05:10:32.382Z,21.10
2019-01-22T05:16:16.423Z,21.10
2019-01-22T05:21:44.750Z,21.10
2019-01-22T05:27:28.989Z,21.10
2019-01-22T05:32:43.819Z,21.10
2019-01-22T05:38:28.405Z,21.10
2019-01-22T05:43:54.541Z,21.10
2019-01-22T05:49:32.821Z,21.10
2019-01-22T05:54:56.140Z,21.10
2019-01-22T06:00:37.492Z,21.10
2019-01-22T06:06:14.332Z,21.10
2019-01-22T06:11:50.282Z,21.10
2019-01-22T06:18:01.469Z,21.10
2019-01-22T06:23:46.690Z,21.00
2019-01-22T06:29:22.541Z,21.10
2019-01-22T06:34:54.830Z,21.10
2019-01-22T06:40:20.130Z,21.10
2019-01-22T06:46:21.549Z,21.00
2019-01-22T06:52:16.541Z,21.00
2019-01-22T06:57:57.671Z,21.00
2019-01-22T07:03:40.189Z,21.00
2019-01-22T07:09:32.629Z,21.00
2019-01-22T07:14:58.340Z,21.00
2019-01-22T07:20:42.559Z,21.00
2019-01-22T07:26:29.450Z,21.00
2019-01-22T07:32:00.231Z,21.00
2019-01-22T07:37:45.299Z,21.00
2019-01-22T07:43:11.958Z,21.00
2019-01-22T07:48:36.813Z,21.00
2019-01-22T07:54:25.449Z,21.00
2019-01-22T07:59:50.531Z,21.00
2019-01-22T08:05:10.100Z,21.00
2019-01-22T08:11:05.230Z,20.90
2019-01-22T08:16:51.561Z,20.90
2019-01-22T08:22:28.949Z,20.90
2019-01-22T08:28:05.870Z,20.90
2019-01-22T08:33:46.641Z,20.90
2019-01-22T08:39:28.919Z,20.90
2019-01-22T08:45:02.301Z,20.90
2019-01-22T08:50:42.049Z,20.90
2019-01-22T08:56:05.991Z,20.90
2019-01-22T09:01:35.538Z,21.00
2019-01-22T09:07:03.009Z,21.00
2019-01-22T09:12:40.532Z,21.00
2019-01-22T09:18:29.662Z,21.00
2019-01-22T09:24:22.237Z,21.10
2019-01-22T09:29:56.591Z,20.80
2019-01-22T09:35:35.519Z,20.30
2019-01-22T09:40:41.501Z,20.30
2019-01-22T09:45:47.809Z,20.40
2019-01-22T09:50:53.684Z,19.90
2019-01-22T09:56:00.864Z,19.80
2019-01-22T10:01:07.590Z,19.90
2019-01-22T10:06:13.805Z,20.10
2019-01-22T10:11:19.480Z,20.30
2019-01-22T10:16:25.830Z,20.50
2019-01-22T10:21:32.201Z,20.70
2019-01-22T10:26:38.659Z,20.80
2019-01-22T10:31:44.890Z,20.90
2019-01-22T10:36:51.461Z,21.00
2019-01-22T10:41:58.189Z,21.10
2019-01-22T10:47:04.712Z,21.10
2019-01-22T10:52:11.289Z,21.20
2019-01-22T10:57:17.842Z,21.30
2019-01-22T11:02:23.889Z,21.30
2019-01-22T11:07:29.841Z,21.40
2019-01-22T11:12:36.131Z,21.50
2019-01-22T11:17:50.191Z,21.50
2019-01-22T11:23:14.401Z,21.60
2019-01-22T11:28:47.591Z,21.70
2019-01-22T11:34:30.789Z,21.80
2019-01-22T11:39:54.759Z,21.90
2019-01-22T11:45:18.270Z,21.90
2019-01-22T11:50:32.638Z,22.00
2019-01-22T11:55:50.459Z,22.00
2019-01-22T12:00:47.131Z,22.00
2019-01-22T12:05:53.561Z,22.00
2019-01-22T12:10:59.659Z,22.00
2019-01-22T12:16:23.802Z,22.00
2019-01-22T12:21:29.402Z,22.10
2019-01-22T12:26:35.745Z,22.10
2019-01-22T12:31:41.449Z,22.10
2019-01-22T12:36:46.998Z,22.20
2019-01-22T12:41:54.029Z,22.20
2019-01-22T12:47:00.887Z,22.20
2019-01-22T12:52:06.770Z,22.20
2019-01-22T12:57:13.650Z,22.20
2019-01-22T13:02:20.366Z,22.20
2019-01-22T13:07:27.141Z,22.10
2019-01-22T13:12:33.572Z,22.10
2019-01-22T13:17:40.064Z,22.10
2019-01-22T13:22:46.423Z,22.10
2019-01-22T13:27:52.150Z,22.10
2019-01-22T13:32:57.991Z,22.20
2019-01-22T13:38:04.029Z,22.20
2019-01-22T13:43:09.728Z,22.50
2019-01-22T13:48:18.639Z,22.80
2019-01-22T13:53:24.339Z,23.10
2019-01-22T13:58:30.902Z,23.30
2019-01-22T14:03:36.621Z,23.30
2019-01-22T14:08:43.340Z,23.20
2019-01-22T14:13:50.820Z,23.10
2019-01-22T14:18:57.242Z,23.00
2019-01-22T14:24:02.979Z,23.00
2019-01-22T14:29:09.398Z,23.00
2019-01-22T14:34:15.809Z,23.00
2019-01-22T14:39:26.649Z,23.00
2019-01-22T14:44:29.921Z,23.10
2019-01-22T14:49:36.342Z,23.00
2019-01-22T14:54:42.201Z,22.90
2019-01-22T14:59:48.659Z,22.80
2019-01-22T15:04:55.342Z,22.70
2019-01-22T15:10:00.993Z,22.60
2019-01-22T15:15:07.900Z,22.50
2019-01-22T15:20:17.829Z,22.50
2019-01-22T15:25:24.225Z,22.40
2019-01-22T15:30:37.913Z,22.40
2019-01-22T15:35:43.593Z,22.40
2019-01-22T15:40:49.169Z,22.40
2019-01-22T15:45:54.909Z,22.40
2019-01-22T15:51:00.692Z,22.40
2019-01-22T15:56:06.569Z,22.40
2019-01-22T16:01:12.390Z,22.30
2019-01-22T16:06:18.202Z,22.30
2019-01-22T16:11:24.190Z,22.30
2019-01-22T16:16:29.968Z,22.20
2019-01-22T16:21:35.889Z,22.20
2019-01-22T16:26:41.689Z,22.20
2019-01-22T16:31:47.468Z,22.20
2019-01-22T16:36:53.201Z,22.10
2019-01-22T16:41:59.170Z,22.10
2019-01-22T16:47:04.930Z,22.20
2019-01-22T16:52:10.916Z,22.20
2019-01-22T16:57:16.760Z,22.10
2019-01-22T17:02:22.592Z,22.10
2019-01-22T17:07:28.162Z,22.10
2019-01-22T17:12:34.379Z,22.10
2019-01-22T17:17:40.379Z,22.10
2019-01-22T17:22:46.270Z,22.10
2019-01-22T17:27:52.060Z,22.10
2019-01-22T17:33:16.640Z,22.00
2019-01-22T17:38:23.459Z,22.00
2019-01-22T17:43:29.089Z,22.00
2019-01-22T17:48:34.610Z,21.90
2019-01-22T17:53:40.501Z,21.90
2019-01-22T17:58:46.301Z,21.90
2019-01-22T18:03:52.210Z,21.90
2019-01-22T18:08:57.998Z,21.90
2019-01-22T18:14:03.929Z,21.90
2019-01-22T18:19:09.961Z,21.80
2019-01-22T18:24:15.908Z,21.80
2019-01-22T18:29:21.701Z,21.80
2019-01-22T18:34:27.731Z,21.80
2019-01-22T18:39:33.690Z,21.70
2019-01-22T18:44:39.850Z,21.70
2019-01-22T18:49:46.113Z,21.70
2019-01-22T18:54:51.581Z,21.70
2019-01-22T19:00:04.597Z,21.70
2019-01-22T19:05:10.863Z,21.70
2019-01-22T19:10:19.550Z,21.70
2019-01-22T19:15:25.790Z,21.70
2019-01-22T19:20:31.652Z,21.70
2019-01-22T19:25:37.997Z,21.70
2019-01-22T19:30:44.082Z,21.60
2019-01-22T19:35:50.910Z,21.60
2019-01-22T19:40:57.490Z,21.60
2019-01-22T19:46:03.701Z,21.60
2019-01-22T19:51:09.651Z,21.60
2019-01-22T19:56:15.194Z,21.60
2019-01-22T20:01:21.202Z,21.60
2019-01-22T20:06:27.189Z,21.60
2019-01-22T20:11:32.811Z,21.50
2019-01-22T20:16:43.001Z,21.60
2019-01-22T20:21:49.190Z,21.60
2019-01-22T20:26:55.238Z,21.50
2019-01-22T20:32:01.401Z,21.50
2019-01-22T20:37:10.628Z,21.50
2019-01-22T20:42:17.130Z,21.50
2019-01-22T20:47:25.414Z,21.50
2019-01-22T20:52:32.442Z,21.50
2019-01-22T20:57:41.459Z,21.50
2019-01-22T21:02:47.515Z,21.50
2019-01-22T21:07:55.568Z,21.50
2019-01-22T21:13:01.986Z,21.50
2019-01-22T21:18:07.998Z,21.50
2019-01-22T21:23:15.228Z,21.40
2019-01-22T21:28:24.349Z,21.40
2019-01-22T21:33:30.676Z,21.40
2019-01-22T21:38:37.297Z,21.40
2019-01-22T21:43:45.158Z,21.40
2019-01-22T21:48:50.885Z,21.40
2019-01-22T21:53:56.868Z,21.40
2019-01-22T21:59:02.558Z,21.40
2019-01-22T22:04:09.238Z,21.40
2019-01-22T22:09:17.818Z,21.30
2019-01-22T22:14:24.196Z,21.30
2019-01-22T22:19:30.600Z,21.30
2019-01-22T22:24:36.698Z,21.30
2019-01-22T22:29:42.298Z,21.30
2019-01-22T22:34:48.408Z,21.30
2019-01-22T22:39:54.638Z,21.30
2019-01-22T22:45:00.417Z,21.30
2019-01-22T22:50:06.797Z,21.30
2019-01-22T22:55:12.842Z,21.20
2019-01-22T23:00:32.658Z,21.20
2019-01-22T23:05:38.908Z,21.20
2019-01-22T23:10:44.783Z,21.20
2019-01-22T23:15:50.940Z,21.20
2019-01-22T23:20:56.761Z,21.20
2019-01-22T23:26:02.700Z,21.20
2019-01-22T23:31:08.482Z,21.20
2019-01-22T23:36:14.780Z,21.20
2019-01-22T23:41:20.639Z,21.20
2019-01-22T23:46:27.431Z,21.20
2019-01-22T23:51:33.212Z,21.20
2019-01-22T23:56:39.109Z,21.20
